createdAt,value
2022-09-11T00:00:18.458Z,101687.53
2022-09-11T00:05:41.841Z,101688.63
2022-09-11T00:11:18.642Z,101695.91
2022-09-11T00:16:43.204Z,101703.66
2022-09-11T00:22:06.099Z,101697.25
2022-09-11T00:27:27.788Z,101701.97
2022-09-11T00:32:50.169Z,101696.41
2022-09-11T00:38:16.647Z,101689.16
2022-09-11T00:44:03.578Z,101684.41
2022-09-11T00:49:43.112Z,101688.28
2022-09-11T00:55:14.717Z,101699.72
2022-09-11T01:00:39.671Z,101699.72
2022-09-11T01:06:02.053Z,101700.81
2022-09-11T01:11:49.831Z,101696.91
2022-09-11T01:17:22.194Z,101684.09
2022-09-11T01:23:19.859Z,101696.06
2022-09-11T01:28:54.970Z,101693.53
2022-09-11T01:34:26.036Z,101690.16
2022-09-11T01:39:56.450Z,101696.59
2022-09-11T01:45:18.859Z,101699.59
2022-09-11T01:50:45.292Z,101692.94
2022-09-11T01:56:10.946Z,101697.69
2022-09-11T02:01:35.635Z,101695.97
2022-09-11T02:07:30.415Z,101700.69
2022-09-11T02:13:18.510Z,101697.06
2022-09-11T02:18:57.248Z,101697.91
2022-09-11T02:24:20.183Z,101696.47
2022-09-11T02:29:42.561Z,101695.63
2022-09-11T02:35:05.211Z,101696.97
2022-09-11T02:40:51.558Z,101717.06
2022-09-11T02:46:45.409Z,101718.16
2022-09-11T02:52:28.386Z,101722.91
2022-09-11T02:58:03.276Z,101721.22
2022-09-11T03:03:24.888Z,101723.41
2022-09-11T03:08:47.036Z,101722.53
2022-09-11T03:14:09.149Z,101728.97
2022-09-11T03:19:31.029Z,101728.97
2022-09-11T03:24:52.649Z,101729.81
2022-09-11T03:30:14.476Z,101732.84
2022-09-11T03:35:36.266Z,101749.56
2022-09-11T03:40:58.573Z,101736.72
2022-09-11T03:46:20.282Z,101733.94
2022-09-11T03:51:42.008Z,101735.03
2022-09-11T03:57:03.922Z,101744.50
2022-09-11T04:02:25.680Z,101733.34
2022-09-11T04:07:48.605Z,101740.88
2022-09-11T04:13:11.129Z,101744.50
2022-09-11T04:18:35.720Z,101742.78
2022-09-11T04:24:00.416Z,101746.69
2022-09-11T04:29:22.695Z,101741.97
2022-09-11T04:34:44.343Z,101752.25
2022-09-11T04:40:06.647Z,101748.88
2022-09-11T04:45:33.788Z,101759.50
2022-09-11T04:51:00.676Z,101772.88
2022-09-11T04:56:22.420Z,101775.06
2022-09-11T05:01:44.700Z,101774.19
2022-09-11T05:07:07.158Z,101772.25
2022-09-11T05:12:31.992Z,101792.84
2022-09-11T05:17:53.633Z,101784.72
2022-09-11T05:23:15.274Z,101797.22
2022-09-11T05:28:37.910Z,101800.00
2022-09-11T05:34:00.737Z,101812.00
2022-09-11T05:39:22.438Z,101816.47
2022-09-11T05:44:44.168Z,101811.75
2022-09-11T05:50:06.310Z,101817.31
2022-09-11T05:55:28.296Z,101830.16
2022-09-11T06:00:50.007Z,101842.41
2022-09-11T06:06:13.342Z,101842.41
2022-09-11T06:11:35.231Z,101847.97
2022-09-11T06:16:57.375Z,101861.03
2022-09-11T06:22:19.143Z,101868.56
2022-09-11T06:27:40.788Z,101868.56
2022-09-11T06:33:02.417Z,101864.94
2022-09-11T06:38:24.262Z,101862.38
2022-09-11T06:43:45.948Z,101865.16
2022-09-11T06:49:07.689Z,101864.06
2022-09-11T06:54:29.388Z,101864.94
2022-09-11T06:59:52.757Z,101875.81
2022-09-11T07:05:14.592Z,101870.25
2022-09-11T07:10:36.233Z,101871.09
2022-09-11T07:16:02.846Z,101866.13
2022-09-11T07:21:26.927Z,101860.53
2022-09-11T07:26:48.567Z,101854.75
2022-09-11T07:32:10.455Z,101862.84
2022-09-11T07:37:32.152Z,101873.72
2022-09-11T07:42:54.001Z,101870.94
2022-09-11T07:48:15.768Z,101882.09
2022-09-11T07:53:46.377Z,101892.16
2022-09-11T07:59:09.069Z,101897.97
2022-09-11T08:04:30.730Z,101892.41
2022-09-11T08:10:04.588Z,101894.94
2022-09-11T08:15:34.181Z,101888.28
2022-09-11T08:21:07.619Z,101888.63
2022-09-11T08:26:31.518Z,101885.00
2022-09-11T08:31:53.188Z,101880.03
2022-09-11T08:37:14.845Z,101886.22
2022-09-11T08:42:37.914Z,101891.78
2022-09-11T08:48:00.647Z,101900.16
2022-09-11T08:53:22.347Z,101909.06
2022-09-11T08:58:46.752Z,101911.88
2022-09-11T09:04:21.334Z,101911.88
2022-09-11T09:10:01.397Z,101913.56
2022-09-11T09:15:26.239Z,101923.00
2022-09-11T09:21:02.889Z,101918.03
2022-09-11T09:26:37.734Z,101922.53
2022-09-11T09:32:05.812Z,101929.78
2022-09-11T09:37:28.187Z,101939.03
2022-09-11T09:42:59.474Z,101940.94
2022-09-11T09:48:21.110Z,101931.50
2022-09-11T09:53:53.193Z,101939.13
2022-09-11T09:59:19.164Z,101937.75
2022-09-11T10:04:40.870Z,101937.75
2022-09-11T10:10:04.871Z,101945.03
2022-09-11T10:15:27.556Z,101949.78
2022-09-11T10:20:49.543Z,101942.25
2022-09-11T10:26:17.481Z,101944.59
2022-09-11T10:31:41.214Z,101954.16
2022-09-11T10:37:21.400Z,101948.31
2022-09-11T10:42:43.022Z,101938.03
2022-09-11T10:48:23.063Z,101938.03
2022-09-11T10:54:14.955Z,101945.28
2022-09-11T10:59:51.544Z,101941.41
2022-09-11T11:05:27.245Z,101929.69
2022-09-11T11:11:03.930Z,101934.72
2022-09-11T11:16:39.689Z,101932.81
2022-09-11T11:22:01.432Z,101935.34
2022-09-11T11:27:25.705Z,101928.06
2022-09-11T11:32:47.314Z,101925.06
2022-09-11T11:38:16.143Z,101918.63
2022-09-11T11:43:40.993Z,101909.16
2022-09-11T11:49:10.179Z,101907.22
2022-09-11T11:54:57.071Z,101894.13
2022-09-11T12:00:19.313Z,101895.22
2022-09-11T12:05:41.224Z,101890.50
2022-09-11T12:11:06.570Z,101887.47
2022-09-11T12:16:33.980Z,101886.59
2022-09-11T12:21:55.640Z,101885.75
2022-09-11T12:27:35.344Z,101879.09
2022-09-11T12:33:00.068Z,101877.41
2022-09-11T12:38:39.913Z,101867.06
2022-09-11T12:44:03.542Z,101865.41
2022-09-11T12:49:27.407Z,101862.38
2022-09-11T12:54:49.140Z,101867.06
2022-09-11T13:00:24.638Z,101852.06
2022-09-11T13:05:55.607Z,101849.03
2022-09-11T13:11:38.352Z,101845.16
2022-09-11T13:17:12.433Z,101838.97
2022-09-11T13:22:35.385Z,101830.34
2022-09-11T13:28:01.463Z,101821.97
2022-09-11T13:33:28.092Z,101812.53
2022-09-11T13:38:54.649Z,101817.28
2022-09-11T13:44:43.026Z,101817.84
2022-09-11T13:50:11.029Z,101807.81
2022-09-11T13:55:32.772Z,101808.66
2022-09-11T14:00:55.637Z,101812.53
2022-09-11T14:06:20.096Z,101802.22
2022-09-11T14:11:41.850Z,101795.78
2022-09-11T14:17:03.629Z,101792.19
2022-09-11T14:22:31.180Z,101788.31
2022-09-11T14:27:53.332Z,101789.38
2022-09-11T14:33:18.068Z,101782.94
2022-09-11T14:38:40.810Z,101774.84
2022-09-11T14:44:02.757Z,101773.16
2022-09-11T14:49:24.500Z,101769.28
2022-09-11T14:54:47.681Z,101777.63
2022-09-11T15:00:13.541Z,101770.97
2022-09-11T15:05:35.586Z,101763.09
2022-09-11T15:10:57.225Z,101757.25
2022-09-11T15:16:18.980Z,101746.97
2022-09-11T15:21:40.922Z,101754.75
2022-09-11T15:27:03.982Z,101750.00
2022-09-11T15:32:25.814Z,101746.38
2022-09-11T15:37:47.554Z,101749.44
2022-09-11T15:43:09.289Z,101747.47
2022-09-11T15:48:31.136Z,101736.31
2022-09-11T15:53:52.792Z,101730.75
2022-09-11T15:59:17.928Z,101718.75
2022-09-11T16:04:39.606Z,101721.78
2022-09-11T16:10:01.313Z,101727.34
2022-09-11T16:15:23.022Z,101732.94
2022-09-11T16:20:45.434Z,101721.78
2022-09-11T16:26:09.875Z,101715.59
2022-09-11T16:31:31.592Z,101716.72
2022-09-11T16:36:53.285Z,101711.13
2022-09-11T16:42:14.934Z,101710.03
2022-09-11T16:47:37.099Z,101706.41
2022-09-11T16:52:59.240Z,101710.31
2022-09-11T16:58:21.636Z,101700.50
2022-09-11T17:03:49.044Z,101694.34
2022-09-11T17:09:10.729Z,101697.97
2022-09-11T17:14:32.926Z,101688.50
2022-09-11T17:19:54.568Z,101687.91
2022-09-11T17:25:16.217Z,101677.03
2022-09-11T17:30:39.184Z,101677.25
2022-09-11T17:36:02.062Z,101673.59
2022-09-11T17:41:23.786Z,101669.38
2022-09-11T17:46:45.448Z,101668.53
2022-09-11T17:52:07.497Z,101670.75
2022-09-11T17:57:29.340Z,101665.41
2022-09-11T18:02:52.001Z,101672.94
2022-09-11T18:08:13.727Z,101668.44
2022-09-11T18:13:35.719Z,101667.59
2022-09-11T18:18:57.419Z,101662.03
2022-09-11T18:24:20.897Z,101664.81
2022-09-11T18:29:42.598Z,101663.38
2022-09-11T18:35:05.351Z,101670.91
2022-09-11T18:40:27.147Z,101667.84
2022-09-11T18:45:48.861Z,101673.44
2022-09-11T18:51:11.483Z,101681.28
2022-09-11T18:56:33.292Z,101681.03
2022-09-11T19:01:55.321Z,101684.41
2022-09-11T19:07:17.106Z,101677.47
2022-09-11T19:12:39.648Z,101680.88
2022-09-11T19:18:01.833Z,101684.50
2022-09-11T19:23:23.738Z,101684.28
2022-09-11T19:28:47.142Z,101687.91
2022-09-11T19:34:12.062Z,101677.88
2022-09-11T19:39:33.744Z,101680.66
2022-09-11T19:44:56.395Z,101685.97
2022-09-11T19:50:22.037Z,101673.97
2022-09-11T19:55:43.717Z,101676.25
2022-09-11T20:01:13.766Z,101678.22
2022-09-11T20:06:36.316Z,101678.22
2022-09-11T20:11:57.995Z,101674.34
2022-09-11T20:17:19.661Z,101682.09
2022-09-11T20:22:41.261Z,101677.88
2022-09-11T20:28:03.286Z,101678.72
2022-09-11T20:33:24.922Z,101673.59
2022-09-11T20:38:54.428Z,101678.34
2022-09-11T20:44:16.195Z,101686.09
2022-09-11T20:49:37.870Z,101691.94
2022-09-11T20:55:00.572Z,101698.63
2022-09-11T21:00:22.440Z,101694.97
2022-09-11T21:05:45.001Z,101695.22
2022-09-11T21:11:07.254Z,101691.84
2022-09-11T21:16:29.025Z,101690.16
2022-09-11T21:21:50.816Z,101683.97
2022-09-11T21:27:12.482Z,101678.66
2022-09-11T21:32:34.119Z,101681.69
2022-09-11T21:37:55.760Z,101676.97
2022-09-11T21:43:18.113Z,101676.13
2022-09-11T21:48:41.644Z,101679.16
2022-09-11T21:54:03.310Z,101678.34
2022-09-11T21:59:24.956Z,101677.47
2022-09-11T22:04:46.693Z,101674.09
2022-09-11T22:10:08.908Z,101673.00
2022-09-11T22:15:30.535Z,101672.41
2022-09-11T22:20:52.217Z,101662.13
2022-09-11T22:26:19.954Z,101656.53
2022-09-11T22:31:41.729Z,101653.16
2022-09-11T22:37:03.650Z,101659.81
2022-09-11T22:42:25.440Z,101657.03
2022-09-11T22:47:47.115Z,101648.06
2022-09-11T22:53:08.769Z,101642.28
2022-09-11T22:58:30.998Z,101639.72
2022-09-11T23:03:53.409Z,101639.72
2022-09-11T23:09:17.110Z,101626.66
2022-09-11T23:14:38.796Z,101635.50
2022-09-11T23:20:00.628Z,101638.56
2022-09-11T23:25:24.337Z,101631.03
2022-09-11T23:30:46.144Z,101632.97
2022-09-11T23:36:09.858Z,101632.13
2022-09-11T23:41:32.203Z,101626.81
2022-09-11T23:46:53.949Z,101624.03
2022-09-11T23:52:15.692Z,101613.97
2022-09-11T23:57:37.334Z,101613.13
